sensor_id;sensor_type;location;lat;lon;timestamp;P1;durP1;ratioP1;P2;durP2;ratioP2
55330;SDS011;58851;42.984;20.336;2023-04-01T00:00:11;14.90;;;6.00;;
55330;SDS011;58851;42.984;20.336;2023-04-01T00:02:38;16.27;;;9.20;;
55330;SDS011;58851;42.984;20.336;2023-04-01T00:05:03;20.33;;;10.85;;
55330;SDS011;58851;42.984;20.336;2023-04-01T00:07:30;27.13;;;12.20;;
55330;SDS011;58851;42.984;20.336;2023-04-01T00:09:56;27.63;;;16.20;;
55330;SDS011;58851;42.984;20.336;2023-04-01T00:12:22;12.55;;;7.10;;
55330;SDS011;58851;42.984;20.336;2023-04-01T00:14:50;17.10;;;6.68;;
55330;SDS011;58851;42.984;20.336;2023-04-01T00:17:15;13.02;;;5.45;;
55330;SDS011;58851;42.984;20.336;2023-04-01T00:19:41;15.50;;;7.40;;
55330;SDS011;58851;42.984;20.336;2023-04-01T00:22:07;15.20;;;9.55;;
55330;SDS011;58851;42.984;20.336;2023-04-01T00:24:36;11.98;;;6.95;;
55330;SDS011;58851;42.984;20.336;2023-04-01T00:27:02;16.70;;;7.60;;
55330;SDS011;58851;42.984;20.336;2023-04-01T00:29:29;16.13;;;8.85;;
55330;SDS011;58851;42.984;20.336;2023-04-01T00:31:56;11.50;;;6.35;;
55330;SDS011;58851;42.984;20.336;2023-04-01T00:34:22;14.52;;;8.13;;
55330;SDS011;58851;42.984;20.336;2023-04-01T00:36:49;23.38;;;11.30;;
55330;SDS011;58851;42.984;20.336;2023-04-01T00:39:18;20.58;;;14.63;;
55330;SDS011;58851;42.984;20.336;2023-04-01T00:41:44;16.98;;;10.40;;
55330;SDS011;58851;42.984;20.336;2023-04-01T00:44:20;22.85;;;13.65;;
55330;SDS011;58851;42.984;20.336;2023-04-01T00:46:48;31.58;;;15.30;;
55330;SDS011;58851;42.984;20.336;2023-04-01T00:49:15;32.35;;;18.38;;
55330;SDS011;58851;42.984;20.336;2023-04-01T00:51:44;25.10;;;13.50;;
55330;SDS011;58851;42.984;20.336;2023-04-01T00:54:13;24.00;;;11.73;;
55330;SDS011;58851;42.984;20.336;2023-04-01T00:56:45;28.92;;;13.65;;
55330;SDS011;58851;42.984;20.336;2023-04-01T00:59:25;21.15;;;12.32;;
55330;SDS011;58851;42.984;20.336;2023-04-01T01:01:53;21.10;;;10.30;;
55330;SDS011;58851;42.984;20.336;2023-04-01T01:04:24;14.30;;;7.82;;
55330;SDS011;58851;42.984;20.336;2023-04-01T01:09:41;18.52;;;11.95;;
55330;SDS011;58851;42.984;20.336;2023-04-01T01:12:25;17.45;;;11.15;;
55330;SDS011;58851;42.984;20.336;2023-04-01T01:20:14;28.40;;;14.80;;
55330;SDS011;58851;42.984;20.336;2023-04-01T01:25:42;20.92;;;9.50;;
55330;SDS011;58851;42.984;20.336;2023-04-01T01:28:16;20.60;;;11.73;;
55330;SDS011;58851;42.984;20.336;2023-04-01T01:31:01;18.75;;;9.13;;
55330;SDS011;58851;42.984;20.336;2023-04-01T01:33:42;15.45;;;7.47;;
55330;SDS011;58851;42.984;20.336;2023-04-01T01:36:32;13.90;;;7.57;;
55330;SDS011;58851;42.984;20.336;2023-04-01T01:39:00;47.05;;;26.30;;
55330;SDS011;58851;42.984;20.336;2023-04-01T01:41:28;25.95;;;13.38;;
55330;SDS011;58851;42.984;20.336;2023-04-01T01:43:56;25.23;;;14.40;;
55330;SDS011;58851;42.984;20.336;2023-04-01T01:46:25;18.08;;;9.48;;
55330;SDS011;58851;42.984;20.336;2023-04-01T01:48:52;14.00;;;7.88;;
55330;SDS011;58851;42.984;20.336;2023-04-01T01:51:20;16.70;;;8.73;;
55330;SDS011;58851;42.984;20.336;2023-04-01T01:53:47;21.30;;;10.57;;
55330;SDS011;58851;42.984;20.336;2023-04-01T01:56:13;58.42;;;24.60;;
55330;SDS011;58851;42.984;20.336;2023-04-01T01:58:49;139.82;;;50.30;;
55330;SDS011;58851;42.984;20.336;2023-04-01T02:01:19;163.57;;;53.05;;
55330;SDS011;58851;42.984;20.336;2023-04-01T02:03:51;203.07;;;78.32;;
55330;SDS011;58851;42.984;20.336;2023-04-01T02:06:18;242.50;;;104.32;;
55330;SDS011;58851;42.984;20.336;2023-04-01T02:11:43;139.32;;;64.05;;
55330;SDS011;58851;42.984;20.336;2023-04-01T02:14:20;82.88;;;43.60;;
55330;SDS011;58851;42.984;20.336;2023-04-01T02:19:26;56.40;;;35.90;;
55330;SDS011;58851;42.984;20.336;2023-04-01T02:24:24;28.80;;;16.02;;
55330;SDS011;58851;42.984;20.336;2023-04-01T02:26:53;29.88;;;16.33;;
55330;SDS011;58851;42.984;20.336;2023-04-01T02:29:22;30.13;;;17.52;;
55330;SDS011;58851;42.984;20.336;2023-04-01T02:31:50;30.20;;;19.05;;
55330;SDS011;58851;42.984;20.336;2023-04-01T02:34:18;186.93;;;93.07;;
55330;SDS011;58851;42.984;20.336;2023-04-01T02:36:44;286.05;;;140.00;;
55330;SDS011;58851;42.984;20.336;2023-04-01T02:39:10;88.95;;;44.53;;
55330;SDS011;58851;42.984;20.336;2023-04-01T02:41:40;102.00;;;47.47;;
55330;SDS011;58851;42.984;20.336;2023-04-01T02:44:07;110.40;;;55.15;;
55330;SDS011;58851;42.984;20.336;2023-04-01T02:46:33;109.90;;;55.40;;
55330;SDS011;58851;42.984;20.336;2023-04-01T02:48:59;106.57;;;55.08;;
55330;SDS011;58851;42.984;20.336;2023-04-01T02:51:25;141.32;;;70.80;;
55330;SDS011;58851;42.984;20.336;2023-04-01T02:53:51;56.75;;;27.80;;
55330;SDS011;58851;42.984;20.336;2023-04-01T02:56:17;32.35;;;15.35;;
55330;SDS011;58851;42.984;20.336;2023-04-01T02:58:44;26.33;;;14.30;;
55330;SDS011;58851;42.984;20.336;2023-04-01T03:01:10;21.70;;;11.73;;
55330;SDS011;58851;42.984;20.336;2023-04-01T03:03:36;21.98;;;13.30;;
55330;SDS011;58851;42.984;20.336;2023-04-01T03:06:09;28.63;;;15.55;;
55330;SDS011;58851;42.984;20.336;2023-04-01T03:08:36;24.38;;;13.30;;
55330;SDS011;58851;42.984;20.336;2023-04-01T03:11:03;25.05;;;14.88;;
55330;SDS011;58851;42.984;20.336;2023-04-01T03:13:29;48.80;;;27.63;;
55330;SDS011;58851;42.984;20.336;2023-04-01T03:15:55;52.58;;;27.33;;
55330;SDS011;58851;42.984;20.336;2023-04-01T03:18:21;51.58;;;36.72;;
55330;SDS011;58851;42.984;20.336;2023-04-01T03:20:46;67.85;;;53.38;;
55330;SDS011;58851;42.984;20.336;2023-04-01T03:23:12;86.55;;;70.57;;
55330;SDS011;58851;42.984;20.336;2023-04-01T03:25:38;126.10;;;93.90;;
55330;SDS011;58851;42.984;20.336;2023-04-01T03:28:04;75.90;;;58.47;;
55330;SDS011;58851;42.984;20.336;2023-04-01T03:30:30;44.75;;;29.13;;
55330;SDS011;58851;42.984;20.336;2023-04-01T03:32:56;52.70;;;33.17;;
55330;SDS011;58851;42.984;20.336;2023-04-01T03:35:24;69.43;;;44.00;;
55330;SDS011;58851;42.984;20.336;2023-04-01T03:37:50;85.43;;;50.67;;
55330;SDS011;58851;42.984;20.336;2023-04-01T03:40:16;44.58;;;26.77;;
55330;SDS011;58851;42.984;20.336;2023-04-01T03:42:42;51.33;;;17.98;;
55330;SDS011;58851;42.984;20.336;2023-04-01T03:45:08;25.13;;;17.00;;
55330;SDS011;58851;42.984;20.336;2023-04-01T03:47:36;31.02;;;18.23;;
55330;SDS011;58851;42.984;20.336;2023-04-01T03:50:02;43.40;;;25.92;;
55330;SDS011;58851;42.984;20.336;2023-04-01T03:52:29;41.97;;;27.42;;
55330;SDS011;58851;42.984;20.336;2023-04-01T03:54:55;44.92;;;31.83;;
55330;SDS011;58851;42.984;20.336;2023-04-01T03:57:21;67.95;;;44.33;;
55330;SDS011;58851;42.984;20.336;2023-04-01T03:59:46;57.95;;;37.70;;
55330;SDS011;58851;42.984;20.336;2023-04-01T04:02:12;192.60;;;94.03;;
55330;SDS011;58851;42.984;20.336;2023-04-01T04:04:38;87.32;;;45.95;;
55330;SDS011;58851;42.984;20.336;2023-04-01T04:07:04;52.45;;;32.10;;
55330;SDS011;58851;42.984;20.336;2023-04-01T04:09:30;68.93;;;36.15;;
55330;SDS011;58851;42.984;20.336;2023-04-01T04:11:56;66.50;;;40.25;;
55330;SDS011;58851;42.984;20.336;2023-04-01T04:14:22;57.95;;;37.53;;
55330;SDS011;58851;42.984;20.336;2023-04-01T04:16:48;64.68;;;36.67;;
55330;SDS011;58851;42.984;20.336;2023-04-01T04:19:14;65.65;;;37.33;;
55330;SDS011;58851;42.984;20.336;2023-04-01T04:21:40;91.47;;;56.50;;
55330;SDS011;58851;42.984;20.336;2023-04-01T04:24:06;70.60;;;41.55;;
55330;SDS011;58851;42.984;20.336;2023-04-01T04:26:33;66.47;;;38.28;;
55330;SDS011;58851;42.984;20.336;2023-04-01T04:28:59;79.03;;;49.00;;
55330;SDS011;58851;42.984;20.336;2023-04-01T04:31:26;88.88;;;51.10;;
55330;SDS011;58851;42.984;20.336;2023-04-01T04:33:52;90.80;;;50.15;;
55330;SDS011;58851;42.984;20.336;2023-04-01T04:36:19;83.07;;;49.03;;
55330;SDS011;58851;42.984;20.336;2023-04-01T04:38:45;86.82;;;50.92;;
55330;SDS011;58851;42.984;20.336;2023-04-01T04:41:15;95.57;;;51.05;;
55330;SDS011;58851;42.984;20.336;2023-04-01T04:43:47;80.13;;;43.50;;
55330;SDS011;58851;42.984;20.336;2023-04-01T04:46:18;71.13;;;37.85;;
55330;SDS011;58851;42.984;20.336;2023-04-01T04:48:45;66.75;;;40.70;;
55330;SDS011;58851;42.984;20.336;2023-04-01T04:51:15;75.22;;;40.05;;
55330;SDS011;58851;42.984;20.336;2023-04-01T04:53:42;41.45;;;20.80;;
55330;SDS011;58851;42.984;20.336;2023-04-01T04:56:08;40.72;;;22.92;;
55330;SDS011;58851;42.984;20.336;2023-04-01T04:58:33;39.92;;;21.73;;
55330;SDS011;58851;42.984;20.336;2023-04-01T05:01:05;41.80;;;23.27;;
55330;SDS011;58851;42.984;20.336;2023-04-01T05:03:31;37.60;;;21.15;;
55330;SDS011;58851;42.984;20.336;2023-04-01T05:05:57;50.75;;;26.23;;
55330;SDS011;58851;42.984;20.336;2023-04-01T05:08:23;49.40;;;25.20;;
55330;SDS011;58851;42.984;20.336;2023-04-01T05:10:48;47.35;;;28.77;;
55330;SDS011;58851;42.984;20.336;2023-04-01T05:13:14;43.42;;;23.15;;
55330;SDS011;58851;42.984;20.336;2023-04-01T05:15:40;40.80;;;23.67;;
55330;SDS011;58851;42.984;20.336;2023-04-01T05:18:06;38.45;;;24.27;;
55330;SDS011;58851;42.984;20.336;2023-04-01T05:20:32;45.70;;;25.80;;
55330;SDS011;58851;42.984;20.336;2023-04-01T05:22:58;46.65;;;27.45;;
55330;SDS011;58851;42.984;20.336;2023-04-01T05:25:24;117.07;;;51.25;;
55330;SDS011;58851;42.984;20.336;2023-04-01T05:27:50;76.35;;;39.80;;
55330;SDS011;58851;42.984;20.336;2023-04-01T05:30:16;34.55;;;20.98;;
55330;SDS011;58851;42.984;20.336;2023-04-01T05:32:42;38.42;;;17.25;;
55330;SDS011;58851;42.984;20.336;2023-04-01T05:35:09;26.33;;;16.17;;
55330;SDS011;58851;42.984;20.336;2023-04-01T05:37:35;36.88;;;17.00;;
55330;SDS011;58851;42.984;20.336;2023-04-01T05:40:01;32.30;;;16.42;;
55330;SDS011;58851;42.984;20.336;2023-04-01T05:42:27;31.30;;;18.38;;
55330;SDS011;58851;42.984;20.336;2023-04-01T05:44:53;29.42;;;16.50;;
55330;SDS011;58851;42.984;20.336;2023-04-01T05:47:19;28.80;;;17.73;;
55330;SDS011;58851;42.984;20.336;2023-04-01T05:49:44;25.38;;;14.32;;
55330;SDS011;58851;42.984;20.336;2023-04-01T05:52:10;21.60;;;11.23;;
55330;SDS011;58851;42.984;20.336;2023-04-01T05:54:36;25.02;;;12.90;;
55330;SDS011;58851;42.984;20.336;2023-04-01T05:57:02;24.08;;;12.38;;
55330;SDS011;58851;42.984;20.336;2023-04-01T05:59:27;24.65;;;13.32;;
55330;SDS011;58851;42.984;20.336;2023-04-01T06:01:53;22.20;;;12.82;;
55330;SDS011;58851;42.984;20.336;2023-04-01T06:04:19;22.17;;;11.50;;
55330;SDS011;58851;42.984;20.336;2023-04-01T06:06:45;26.48;;;12.55;;
55330;SDS011;58851;42.984;20.336;2023-04-01T06:09:15;27.20;;;13.23;;
55330;SDS011;58851;42.984;20.336;2023-04-01T06:12:14;28.33;;;14.40;;
55330;SDS011;58851;42.984;20.336;2023-04-01T06:33:46;26.92;;;13.23;;
55330;SDS011;58851;42.984;20.336;2023-04-01T06:36:39;39.95;;;24.00;;
55330;SDS011;58851;42.984;20.336;2023-04-01T06:56:02;47.78;;;30.73;;
55330;SDS011;58851;42.984;20.336;2023-04-01T06:59:15;53.88;;;30.08;;
55330;SDS011;58851;42.984;20.336;2023-04-01T07:01:41;53.00;;;30.65;;
55330;SDS011;58851;42.984;20.336;2023-04-01T07:04:14;42.70;;;22.95;;
55330;SDS011;58851;42.984;20.336;2023-04-01T07:06:50;34.40;;;16.55;;
55330;SDS011;58851;42.984;20.336;2023-04-01T07:09:19;23.90;;;12.80;;
55330;SDS011;58851;42.984;20.336;2023-04-01T07:11:49;28.35;;;11.60;;
55330;SDS011;58851;42.984;20.336;2023-04-01T07:14:26;18.88;;;11.40;;
55330;SDS011;58851;42.984;20.336;2023-04-01T07:17:19;19.17;;;8.27;;
55330;SDS011;58851;42.984;20.336;2023-04-01T07:19:52;12.80;;;7.70;;
55330;SDS011;58851;42.984;20.336;2023-04-01T07:22:38;17.85;;;10.10;;
55330;SDS011;58851;42.984;20.336;2023-04-01T07:25:13;20.63;;;10.70;;
55330;SDS011;58851;42.984;20.336;2023-04-01T07:27:42;22.23;;;12.35;;
55330;SDS011;58851;42.984;20.336;2023-04-01T07:30:16;24.38;;;14.00;;
55330;SDS011;58851;42.984;20.336;2023-04-01T07:36:03;20.40;;;14.80;;
55330;SDS011;58851;42.984;20.336;2023-04-01T07:39:01;18.92;;;13.05;;
55330;SDS011;58851;42.984;20.336;2023-04-01T07:41:51;21.55;;;11.88;;
55330;SDS011;58851;42.984;20.336;2023-04-01T07:45:01;21.42;;;10.63;;
55330;SDS011;58851;42.984;20.336;2023-04-01T07:50:50;17.27;;;10.70;;
55330;SDS011;58851;42.984;20.336;2023-04-01T07:53:42;23.88;;;12.52;;
55330;SDS011;58851;42.984;20.336;2023-04-01T07:56:19;32.13;;;18.60;;
55330;SDS011;58851;42.984;20.336;2023-04-01T08:01:55;25.90;;;16.07;;
55330;SDS011;58851;42.984;20.336;2023-04-01T08:04:36;33.60;;;21.45;;
55330;SDS011;58851;42.984;20.336;2023-04-01T08:10:33;31.52;;;18.65;;
55330;SDS011;58851;42.984;20.336;2023-04-01T08:15:46;31.15;;;20.33;;
55330;SDS011;58851;42.984;20.336;2023-04-01T08:18:24;42.97;;;22.42;;
55330;SDS011;58851;42.984;20.336;2023-04-01T08:21:03;22.65;;;14.43;;
55330;SDS011;58851;42.984;20.336;2023-04-01T08:23:40;26.23;;;17.10;;
55330;SDS011;58851;42.984;20.336;2023-04-01T08:28:59;26.17;;;15.38;;
55330;SDS011;58851;42.984;20.336;2023-04-01T08:31:55;11.77;;;8.85;;
55330;SDS011;58851;42.984;20.336;2023-04-01T08:34:30;12.32;;;6.97;;
55330;SDS011;58851;42.984;20.336;2023-04-01T08:37:02;11.18;;;7.57;;
55330;SDS011;58851;42.984;20.336;2023-04-01T08:39:39;12.93;;;9.13;;
55330;SDS011;58851;42.984;20.336;2023-04-01T08:56:18;22.40;;;15.82;;
55330;SDS011;58851;42.984;20.336;2023-04-01T09:04:14;18.52;;;11.63;;
55330;SDS011;58851;42.984;20.336;2023-04-01T09:15:16;16.83;;;12.25;;
55330;SDS011;58851;42.984;20.336;2023-04-01T09:31:48;9.93;;;7.38;;
55330;SDS011;58851;42.984;20.336;2023-04-01T09:45:48;13.52;;;9.60;;
55330;SDS011;58851;42.984;20.336;2023-04-01T10:33:31;5.70;;;3.40;;
55330;SDS011;58851;42.984;20.336;2023-04-01T10:36:27;7.93;;;3.63;;
55330;SDS011;58851;42.984;20.336;2023-04-01T10:39:20;7.38;;;4.80;;
55330;SDS011;58851;42.984;20.336;2023-04-01T11:26:56;38.13;;;23.23;;
55330;SDS011;58851;42.984;20.336;2023-04-01T11:29:49;19.17;;;12.52;;
55330;SDS011;58851;42.984;20.336;2023-04-01T11:32:38;8.02;;;3.65;;
55330;SDS011;58851;42.984;20.336;2023-04-01T11:38:19;5.15;;;3.17;;
55330;SDS011;58851;42.984;20.336;2023-04-01T11:40:56;6.68;;;3.63;;
55330;SDS011;58851;42.984;20.336;2023-04-01T11:43:57;7.38;;;3.30;;
55330;SDS011;58851;42.984;20.336;2023-04-01T11:52:02;6.20;;;3.05;;
55330;SDS011;58851;42.984;20.336;2023-04-01T11:57:51;9.90;;;5.55;;
55330;SDS011;58851;42.984;20.336;2023-04-01T12:03:18;11.45;;;6.13;;
55330;SDS011;58851;42.984;20.336;2023-04-01T12:08:35;8.52;;;4.10;;
55330;SDS011;58851;42.984;20.336;2023-04-01T12:11:24;11.98;;;7.43;;
55330;SDS011;58851;42.984;20.336;2023-04-01T12:16:59;9.18;;;4.75;;
55330;SDS011;58851;42.984;20.336;2023-04-01T12:30:20;7.70;;;4.35;;
55330;SDS011;58851;42.984;20.336;2023-04-01T12:49:34;6.20;;;4.97;;
55330;SDS011;58851;42.984;20.336;2023-04-01T12:54:58;6.60;;;4.50;;
55330;SDS011;58851;42.984;20.336;2023-04-01T13:00:30;2.95;;;1.85;;
55330;SDS011;58851;42.984;20.336;2023-04-01T13:11:55;8.90;;;4.82;;
55330;SDS011;58851;42.984;20.336;2023-04-01T13:28:16;12.48;;;7.85;;
55330;SDS011;58851;42.984;20.336;2023-04-01T13:34:00;4.25;;;3.20;;
55330;SDS011;58851;42.984;20.336;2023-04-01T13:36:28;6.28;;;3.70;;
55330;SDS011;58851;42.984;20.336;2023-04-01T13:43:23;3.80;;;1.92;;
55330;SDS011;58851;42.984;20.336;2023-04-01T13:46:16;4.20;;;2.50;;
55330;SDS011;58851;42.984;20.336;2023-04-01T13:51:55;5.35;;;3.97;;
55330;SDS011;58851;42.984;20.336;2023-04-01T13:54:43;3.80;;;2.53;;
55330;SDS011;58851;42.984;20.336;2023-04-01T13:57:48;5.40;;;4.30;;
55330;SDS011;58851;42.984;20.336;2023-04-01T14:06:17;5.75;;;3.67;;
55330;SDS011;58851;42.984;20.336;2023-04-01T14:09:19;8.45;;;5.35;;
55330;SDS011;58851;42.984;20.336;2023-04-01T14:15:19;6.90;;;5.00;;
55330;SDS011;58851;42.984;20.336;2023-04-01T14:20:22;11.10;;;8.60;;
55330;SDS011;58851;42.984;20.336;2023-04-01T14:25:47;13.25;;;9.77;;
55330;SDS011;58851;42.984;20.336;2023-04-01T14:28:29;11.77;;;8.88;;
55330;SDS011;58851;42.984;20.336;2023-04-01T14:50:57;5.53;;;3.35;;
55330;SDS011;58851;42.984;20.336;2023-04-01T14:53:53;8.10;;;5.35;;
55330;SDS011;58851;42.984;20.336;2023-04-01T14:56:40;3.10;;;2.03;;
55330;SDS011;58851;42.984;20.336;2023-04-01T14:59:14;4.95;;;3.15;;
55330;SDS011;58851;42.984;20.336;2023-04-01T15:01:47;6.72;;;5.03;;
55330;SDS011;58851;42.984;20.336;2023-04-01T15:04:41;18.25;;;12.32;;
55330;SDS011;58851;42.984;20.336;2023-04-01T15:13:14;6.60;;;3.65;;
55330;SDS011;58851;42.984;20.336;2023-04-01T15:26:49;5.65;;;3.90;;
55330;SDS011;58851;42.984;20.336;2023-04-01T15:30:00;6.00;;;3.75;;
55330;SDS011;58851;42.984;20.336;2023-04-01T15:35:36;7.45;;;3.60;;
55330;SDS011;58851;42.984;20.336;2023-04-01T15:38:28;9.45;;;3.75;;
55330;SDS011;58851;42.984;20.336;2023-04-01T15:41:10;4.78;;;2.80;;
55330;SDS011;58851;42.984;20.336;2023-04-01T15:43:42;3.88;;;2.50;;
55330;SDS011;58851;42.984;20.336;2023-04-01T15:49:13;8.48;;;5.30;;
55330;SDS011;58851;42.984;20.336;2023-04-01T15:52:06;6.57;;;3.85;;
55330;SDS011;58851;42.984;20.336;2023-04-01T15:58:29;5.55;;;3.78;;
55330;SDS011;58851;42.984;20.336;2023-04-01T16:00:29;8.38;;;3.35;;
55330;SDS011;58851;42.984;20.336;2023-04-01T16:26:15;14.77;;;7.95;;
55330;SDS011;58851;42.984;20.336;2023-04-01T16:31:32;21.23;;;14.75;;
55330;SDS011;58851;42.984;20.336;2023-04-01T16:43:25;19.83;;;13.27;;
55330;SDS011;58851;42.984;20.336;2023-04-01T16:48:20;36.03;;;24.27;;
55330;SDS011;58851;42.984;20.336;2023-04-01T16:51:14;70.15;;;37.80;;
55330;SDS011;58851;42.984;20.336;2023-04-01T16:53:43;46.15;;;28.33;;
55330;SDS011;58851;42.984;20.336;2023-04-01T16:56:36;14.60;;;9.38;;
55330;SDS011;58851;42.984;20.336;2023-04-01T17:01:53;27.70;;;18.75;;
55330;SDS011;58851;42.984;20.336;2023-04-01T17:12:47;30.30;;;21.67;;
55330;SDS011;58851;42.984;20.336;2023-04-01T17:15:20;32.15;;;21.00;;
55330;SDS011;58851;42.984;20.336;2023-04-01T17:20:46;30.25;;;15.40;;
55330;SDS011;58851;42.984;20.336;2023-04-01T17:29:07;23.38;;;15.32;;
55330;SDS011;58851;42.984;20.336;2023-04-01T17:35:06;38.83;;;24.70;;
55330;SDS011;58851;42.984;20.336;2023-04-01T17:46:02;63.92;;;40.60;;
55330;SDS011;58851;42.984;20.336;2023-04-01T17:51:37;66.00;;;42.00;;
55330;SDS011;58851;42.984;20.336;2023-04-01T17:54:19;72.03;;;47.45;;
55330;SDS011;58851;42.984;20.336;2023-04-01T17:56:59;108.47;;;66.18;;
55330;SDS011;58851;42.984;20.336;2023-04-01T17:59:49;97.60;;;58.97;;
55330;SDS011;58851;42.984;20.336;2023-04-01T18:13:34;85.80;;;45.03;;
55330;SDS011;58851;42.984;20.336;2023-04-01T18:16:34;161.65;;;95.55;;
55330;SDS011;58851;42.984;20.336;2023-04-01T18:23:00;46.40;;;24.48;;
55330;SDS011;58851;42.984;20.336;2023-04-01T18:25:37;38.15;;;18.33;;
55330;SDS011;58851;42.984;20.336;2023-04-01T18:28:16;75.47;;;48.05;;
55330;SDS011;58851;42.984;20.336;2023-04-01T18:31:06;117.97;;;71.87;;
55330;SDS011;58851;42.984;20.336;2023-04-01T18:33:41;152.95;;;93.35;;
55330;SDS011;58851;42.984;20.336;2023-04-01T18:38:50;68.72;;;46.63;;
55330;SDS011;58851;42.984;20.336;2023-04-01T18:47:02;47.92;;;31.15;;
55330;SDS011;58851;42.984;20.336;2023-04-01T18:49:48;46.33;;;30.65;;
55330;SDS011;58851;42.984;20.336;2023-04-01T18:52:37;59.95;;;36.08;;
55330;SDS011;58851;42.984;20.336;2023-04-01T19:03:43;44.75;;;27.10;;
55330;SDS011;58851;42.984;20.336;2023-04-01T19:08:55;35.20;;;22.58;;
55330;SDS011;58851;42.984;20.336;2023-04-01T19:11:50;43.00;;;30.63;;
55330;SDS011;58851;42.984;20.336;2023-04-01T19:20:20;65.53;;;41.00;;
55330;SDS011;58851;42.984;20.336;2023-04-01T19:22:55;65.38;;;41.58;;
55330;SDS011;58851;42.984;20.336;2023-04-01T19:25:38;60.45;;;36.40;;
55330;SDS011;58851;42.984;20.336;2023-04-01T19:28:31;37.80;;;23.97;;
55330;SDS011;58851;42.984;20.336;2023-04-01T19:33:59;36.15;;;20.30;;
55330;SDS011;58851;42.984;20.336;2023-04-01T19:36:49;41.70;;;26.40;;
55330;SDS011;58851;42.984;20.336;2023-04-01T19:39:34;50.95;;;32.47;;
55330;SDS011;58851;42.984;20.336;2023-04-01T19:45:20;70.97;;;47.65;;
55330;SDS011;58851;42.984;20.336;2023-04-01T19:56:22;79.75;;;55.60;;
55330;SDS011;58851;42.984;20.336;2023-04-01T19:59:05;74.33;;;47.67;;
55330;SDS011;58851;42.984;20.336;2023-04-01T20:01:41;109.68;;;67.32;;
55330;SDS011;58851;42.984;20.336;2023-04-01T20:04:17;65.72;;;35.97;;
55330;SDS011;58851;42.984;20.336;2023-04-01T20:17:50;64.85;;;40.67;;
55330;SDS011;58851;42.984;20.336;2023-04-01T20:20:26;57.38;;;36.05;;
55330;SDS011;58851;42.984;20.336;2023-04-01T20:25:52;55.53;;;30.98;;
55330;SDS011;58851;42.984;20.336;2023-04-01T20:28:28;65.22;;;42.47;;
55330;SDS011;58851;42.984;20.336;2023-04-01T20:34:08;102.13;;;62.13;;
55330;SDS011;58851;42.984;20.336;2023-04-01T20:36:36;92.35;;;59.17;;
55330;SDS011;58851;42.984;20.336;2023-04-01T20:39:21;94.05;;;58.75;;
55330;SDS011;58851;42.984;20.336;2023-04-01T20:48:01;78.53;;;44.85;;
55330;SDS011;58851;42.984;20.336;2023-04-01T20:53:51;71.78;;;45.33;;
55330;SDS011;58851;42.984;20.336;2023-04-01T20:59:42;102.47;;;49.75;;
55330;SDS011;58851;42.984;20.336;2023-04-01T21:11:01;92.13;;;55.15;;
55330;SDS011;58851;42.984;20.336;2023-04-01T21:13:47;96.55;;;55.50;;
55330;SDS011;58851;42.984;20.336;2023-04-01T21:57:24;52.72;;;36.80;;
55330;SDS011;58851;42.984;20.336;2023-04-01T22:11:12;53.47;;;32.17;;
55330;SDS011;58851;42.984;20.336;2023-04-01T22:13:50;57.83;;;34.03;;
55330;SDS011;58851;42.984;20.336;2023-04-01T22:16:29;66.43;;;42.55;;
55330;SDS011;58851;42.984;20.336;2023-04-01T22:19:30;67.45;;;40.15;;
55330;SDS011;58851;42.984;20.336;2023-04-01T22:27:47;41.60;;;26.98;;
55330;SDS011;58851;42.984;20.336;2023-04-01T22:33:05;71.57;;;39.90;;
55330;SDS011;58851;42.984;20.336;2023-04-01T22:38:38;66.45;;;35.22;;
55330;SDS011;58851;42.984;20.336;2023-04-01T22:43:57;44.42;;;25.17;;
55330;SDS011;58851;42.984;20.336;2023-04-01T22:49:38;50.45;;;31.60;;
55330;SDS011;58851;42.984;20.336;2023-04-01T22:52:14;91.25;;;50.90;;
55330;SDS011;58851;42.984;20.336;2023-04-01T22:54:48;112.93;;;68.15;;
55330;SDS011;58851;42.984;20.336;2023-04-01T22:57:35;91.18;;;58.40;;
55330;SDS011;58851;42.984;20.336;2023-04-01T23:00:13;63.47;;;43.47;;
55330;SDS011;58851;42.984;20.336;2023-04-01T23:02:49;68.13;;;44.43;;
55330;SDS011;58851;42.984;20.336;2023-04-01T23:05:17;104.72;;;60.03;;
55330;SDS011;58851;42.984;20.336;2023-04-01T23:07:55;110.20;;;62.78;;
55330;SDS011;58851;42.984;20.336;2023-04-01T23:11:14;90.70;;;55.90;;
55330;SDS011;58851;42.984;20.336;2023-04-01T23:13:35;108.30;;;66.72;;
55330;SDS011;58851;42.984;20.336;2023-04-01T23:16:04;122.72;;;65.35;;
55330;SDS011;58851;42.984;20.336;2023-04-01T23:19:14;108.40;;;52.85;;
55330;SDS011;58851;42.984;20.336;2023-04-01T23:21:29;150.90;;;76.35;;
55330;SDS011;58851;42.984;20.336;2023-04-01T23:24:18;146.68;;;72.65;;
55330;SDS011;58851;42.984;20.336;2023-04-01T23:29:48;101.95;;;55.33;;
55330;SDS011;58851;42.984;20.336;2023-04-01T23:32:17;112.80;;;65.60;;
55330;SDS011;58851;42.984;20.336;2023-04-01T23:34:51;107.63;;;64.00;;
55330;SDS011;58851;42.984;20.336;2023-04-01T23:37:23;105.43;;;65.43;;
55330;SDS011;58851;42.984;20.336;2023-04-01T23:39:50;107.93;;;66.28;;
55330;SDS011;58851;42.984;20.336;2023-04-01T23:44:48;113.50;;;70.25;;
55330;SDS011;58851;42.984;20.336;2023-04-01T23:47:26;147.07;;;84.00;;
55330;SDS011;58851;42.984;20.336;2023-04-01T23:49:56;109.03;;;66.15;;
55330;SDS011;58851;42.984;20.336;2023-04-01T23:52:36;95.32;;;56.80;;
55330;SDS011;58851;42.984;20.336;2023-04-01T23:55:22;103.82;;;61.08;;
55330;SDS011;58851;42.984;20.336;2023-04-01T23:58:06;97.22;;;58.17;;
